sensor_id;sensor_type;location;lat;lon;timestamp;pressure;altitude;pressure_sealevel;temperature;humidity
65157;BME280;52745;49.794;18.258;2023-02-13T00:00:17;-16016.53;;;2.96;97.02
65157;BME280;52745;49.794;18.258;2023-02-13T00:03:05;-16016.28;;;2.95;96.88
65157;BME280;52745;49.794;18.258;2023-02-13T00:05:31;-16017.38;;;2.99;96.68
65157;BME280;52745;49.794;18.258;2023-02-13T00:07:58;-16019.00;;;3.05;96.38
65157;BME280;52745;49.794;18.258;2023-02-13T00:10:25;-16017.09;;;2.98;96.53
65157;BME280;52745;49.794;18.258;2023-02-13T00:12:52;-16018.72;;;3.04;95.88
65157;BME280;52745;49.794;18.258;2023-02-13T00:15:19;-16017.91;;;3.01;96.11
65157;BME280;52745;49.794;18.258;2023-02-13T00:17:46;-16015.19;;;2.91;95.83
65157;BME280;52745;49.794;18.258;2023-02-13T00:20:12;-16016.53;;;2.96;96.00
65157;BME280;52745;49.794;18.258;2023-02-13T00:22:40;-16013.81;;;2.86;95.75
65157;BME280;52745;49.794;18.258;2023-02-13T00:25:07;-16011.47;;;2.77;96.29
65157;BME280;52745;49.794;18.258;2023-02-13T00:27:34;-16009.69;;;2.71;96.34
65157;BME280;52745;49.794;18.258;2023-02-13T00:30:03;-16006.56;;;2.59;96.72
65157;BME280;52745;49.794;18.258;2023-02-13T00:32:30;-16007.25;;;2.61;97.22
65157;BME280;52745;49.794;18.258;2023-02-13T00:34:57;-16007.78;;;2.63;96.47
65157;BME280;52745;49.794;18.258;2023-02-13T00:37:24;-16009.56;;;2.70;96.56
65157;BME280;52745;49.794;18.258;2023-02-13T00:39:51;-16008.06;;;2.64;96.68
65157;BME280;52745;49.794;18.258;2023-02-13T00:42:19;-16005.47;;;2.55;96.59
65157;BME280;52745;49.794;18.258;2023-02-13T00:44:49;-16006.97;;;2.60;96.81
65157;BME280;52745;49.794;18.258;2023-02-13T00:47:17;-16005.31;;;2.54;96.61
65157;BME280;52745;49.794;18.258;2023-02-13T00:49:44;-16004.38;;;2.51;96.89
65157;BME280;52745;49.794;18.258;2023-02-13T00:52:11;-16002.03;;;2.42;97.54
65157;BME280;52745;49.794;18.258;2023-02-13T00:54:38;-15999.16;;;2.31;98.26
65157;BME280;52745;49.794;18.258;2023-02-13T00:57:06;-16000.53;;;2.36;98.16
65157;BME280;52745;49.794;18.258;2023-02-13T00:59:32;-16002.59;;;2.44;97.68
65157;BME280;52745;49.794;18.258;2023-02-13T01:02:00;-16003.94;;;2.49;97.54
65157;BME280;52745;49.794;18.258;2023-02-13T01:04:27;-16003.94;;;2.49;97.20
65157;BME280;52745;49.794;18.258;2023-02-13T01:06:57;-16004.63;;;2.52;97.39
65157;BME280;52745;49.794;18.258;2023-02-13T01:09:23;-16003.41;;;2.47;97.36
65157;BME280;52745;49.794;18.258;2023-02-13T01:11:51;-16000.94;;;2.38;97.54
65157;BME280;52745;49.794;18.258;2023-02-13T01:14:17;-15996.97;;;2.23;98.01
65157;BME280;52745;49.794;18.258;2023-02-13T01:16:47;-15999.44;;;2.32;97.66
65157;BME280;52745;49.794;18.258;2023-02-13T01:19:13;-15999.44;;;2.32;97.65
65157;BME280;52745;49.794;18.258;2023-02-13T01:21:41;-15997.50;;;2.25;97.95
65157;BME280;52745;49.794;18.258;2023-02-13T01:24:08;-15999.84;;;2.34;97.66
65157;BME280;52745;49.794;18.258;2023-02-13T01:26:35;-15997.09;;;2.23;97.85
65157;BME280;52745;49.794;18.258;2023-02-13T01:29:02;-15999.03;;;2.31;98.28
65157;BME280;52745;49.794;18.258;2023-02-13T01:31:29;-16000.94;;;2.38;98.22
65157;BME280;52745;49.794;18.258;2023-02-13T01:33:57;-16001.75;;;2.41;97.89
65157;BME280;52745;49.794;18.258;2023-02-13T01:36:25;-16001.75;;;2.41;97.82
65157;BME280;52745;49.794;18.258;2023-02-13T01:38:55;-16001.50;;;2.40;97.76
65157;BME280;52745;49.794;18.258;2023-02-13T01:41:25;-15998.34;;;2.28;98.90
65157;BME280;52745;49.794;18.258;2023-02-13T01:43:58;-16001.22;;;2.39;98.53
65157;BME280;52745;49.794;18.258;2023-02-13T01:46:36;-16003.00;;;2.45;97.98
65157;BME280;52745;49.794;18.258;2023-02-13T01:49:19;-16005.47;;;2.55;97.52
65157;BME280;52745;49.794;18.258;2023-02-13T01:51:53;-16004.91;;;2.53;97.29
65157;BME280;52745;49.794;18.258;2023-02-13T01:54:26;-16003.28;;;2.46;97.49
65157;BME280;52745;49.794;18.258;2023-02-13T01:57:05;-16004.22;;;2.50;97.67
65157;BME280;52745;49.794;18.258;2023-02-13T01:59:39;-16004.78;;;2.52;97.35
65157;BME280;52745;49.794;18.258;2023-02-13T02:02:08;-16006.28;;;2.58;97.78
65157;BME280;52745;49.794;18.258;2023-02-13T02:04:37;-16007.50;;;2.62;96.88
65157;BME280;52745;49.794;18.258;2023-02-13T02:07:18;-16006.16;;;2.57;97.22
65157;BME280;52745;49.794;18.258;2023-02-13T02:09:48;-16004.78;;;2.52;96.93
65157;BME280;52745;49.794;18.258;2023-02-13T02:14:50;-16000.38;;;2.36;97.26
65157;BME280;52745;49.794;18.258;2023-02-13T02:17:21;-15997.50;;;2.25;97.55
65157;BME280;52745;49.794;18.258;2023-02-13T02:23:01;-15990.81;;;2.00;97.71
65157;BME280;52745;49.794;18.258;2023-02-13T02:44:55;-15986.84;;;1.85;100.00
65157;BME280;52745;49.794;18.258;2023-02-13T02:47:32;-15987.25;;;1.86;100.00
65157;BME280;52745;49.794;18.258;2023-02-13T02:50:30;-15988.88;;;1.93;100.00
65157;BME280;52745;49.794;18.258;2023-02-13T02:56:35;-15994.63;;;2.14;100.00
65157;BME280;52745;49.794;18.258;2023-02-13T02:58:57;-15993.69;;;2.11;100.00
65157;BME280;52745;49.794;18.258;2023-02-13T03:01:45;-15995.47;;;2.17;100.00
65157;BME280;52745;49.794;18.258;2023-02-13T03:04:42;-15995.47;;;2.17;100.00
65157;BME280;52745;49.794;18.258;2023-02-13T03:07:29;-15998.19;;;2.27;100.00
65157;BME280;52745;49.794;18.258;2023-02-13T03:10:00;-15998.47;;;2.28;100.00
65157;BME280;52745;49.794;18.258;2023-02-13T03:15:38;-16002.16;;;2.42;100.00
65157;BME280;52745;49.794;18.258;2023-02-13T03:18:26;-16002.84;;;2.45;100.00
65157;BME280;52745;49.794;18.258;2023-02-13T03:21:18;-16002.44;;;2.43;100.00
65157;BME280;52745;49.794;18.258;2023-02-13T03:33:35;-15997.66;;;2.25;100.00
65157;BME280;52745;49.794;18.258;2023-02-13T03:36:27;-15997.66;;;2.25;100.00
65157;BME280;52745;49.794;18.258;2023-02-13T03:42:03;-15998.06;;;2.27;100.00
65157;BME280;52745;49.794;18.258;2023-02-13T03:44:35;-16000.13;;;2.35;100.00
65157;BME280;52745;49.794;18.258;2023-02-13T03:47:05;-16000.38;;;2.36;100.00
65157;BME280;52745;49.794;18.258;2023-02-13T03:49:41;-16000.25;;;2.35;100.00
65157;BME280;52745;49.794;18.258;2023-02-13T03:55:16;-16001.22;;;2.39;100.00
65157;BME280;52745;49.794;18.258;2023-02-13T03:58:06;-15999.28;;;2.32;99.95
65157;BME280;52745;49.794;18.258;2023-02-13T04:00:55;-15997.94;;;2.26;100.00
65157;BME280;52745;49.794;18.258;2023-02-13T04:03:43;-15999.28;;;2.32;100.00
65157;BME280;52745;49.794;18.258;2023-02-13T04:06:15;-15999.44;;;2.32;99.21
65157;BME280;52745;49.794;18.258;2023-02-13T04:08:44;-15997.09;;;2.23;99.64
65157;BME280;52745;49.794;18.258;2023-02-13T04:13:59;-15991.22;;;2.01;100.00
65157;BME280;52745;49.794;18.258;2023-02-13T04:16:32;-15991.06;;;2.01;100.00
65157;BME280;52745;49.794;18.258;2023-02-13T04:19:01;-15992.31;;;2.05;100.00
65157;BME280;52745;49.794;18.258;2023-02-13T04:21:32;-15989.72;;;1.96;100.00
65157;BME280;52745;49.794;18.258;2023-02-13T04:23:59;-15987.38;;;1.87;100.00
65157;BME280;52745;49.794;18.258;2023-02-13T04:26:32;-15987.94;;;1.89;100.00
65157;BME280;52745;49.794;18.258;2023-02-13T04:29:00;-15991.75;;;2.03;100.00
65157;BME280;52745;49.794;18.258;2023-02-13T04:31:27;-15994.38;;;2.13;100.00
65157;BME280;52745;49.794;18.258;2023-02-13T04:33:54;-15994.38;;;2.13;99.67
65157;BME280;52745;49.794;18.258;2023-02-13T04:36:20;-15991.91;;;2.04;100.00
65157;BME280;52745;49.794;18.258;2023-02-13T04:38:49;-15988.88;;;1.93;100.00
65157;BME280;52745;49.794;18.258;2023-02-13T04:41:15;-15988.75;;;1.92;100.00
65157;BME280;52745;49.794;18.258;2023-02-13T04:43:43;-15988.06;;;1.90;100.00
65157;BME280;52745;49.794;18.258;2023-02-13T04:46:09;-15987.78;;;1.89;100.00
65157;BME280;52745;49.794;18.258;2023-02-13T04:48:36;-15989.03;;;1.93;100.00
65157;BME280;52745;49.794;18.258;2023-02-13T04:51:03;-15988.88;;;1.93;100.00
65157;BME280;52745;49.794;18.258;2023-02-13T04:53:30;-15990.94;;;2.00;100.00
65157;BME280;52745;49.794;18.258;2023-02-13T04:55:56;-15992.31;;;2.05;100.00
65157;BME280;52745;49.794;18.258;2023-02-13T04:58:23;-15993.53;;;2.10;99.96
65157;BME280;52745;49.794;18.258;2023-02-13T05:00:50;-15993.00;;;2.08;99.72
65157;BME280;52745;49.794;18.258;2023-02-13T05:03:17;-15992.31;;;2.05;100.00
65157;BME280;52745;49.794;18.258;2023-02-13T05:05:44;-15992.03;;;2.04;100.00
65157;BME280;52745;49.794;18.258;2023-02-13T05:08:11;-15993.28;;;2.09;100.00
65157;BME280;52745;49.794;18.258;2023-02-13T05:10:37;-15995.31;;;2.17;99.99
65157;BME280;52745;49.794;18.258;2023-02-13T05:13:04;-15995.19;;;2.16;99.88
65157;BME280;52745;49.794;18.258;2023-02-13T05:15:31;-15996.28;;;2.20;99.81
65157;BME280;52745;49.794;18.258;2023-02-13T05:17:58;-15996.84;;;2.22;99.33
65157;BME280;52745;49.794;18.258;2023-02-13T05:20:25;-15995.47;;;2.17;99.44
65157;BME280;52745;49.794;18.258;2023-02-13T05:22:53;-15996.97;;;2.23;99.67
65157;BME280;52745;49.794;18.258;2023-02-13T05:25:40;-15998.34;;;2.28;99.77
65157;BME280;52745;49.794;18.258;2023-02-13T05:28:07;-15999.03;;;2.31;99.63
65157;BME280;52745;49.794;18.258;2023-02-13T05:30:53;-16001.91;;;2.41;99.27
65157;BME280;52745;49.794;18.258;2023-02-13T05:33:20;-16003.41;;;2.47;98.83
65157;BME280;52745;49.794;18.258;2023-02-13T05:35:46;-16005.31;;;2.54;98.77
65157;BME280;52745;49.794;18.258;2023-02-13T05:38:13;-16006.69;;;2.59;97.86
65157;BME280;52745;49.794;18.258;2023-02-13T05:40:40;-16006.97;;;2.60;98.31
65157;BME280;52745;49.794;18.258;2023-02-13T05:43:07;-16005.31;;;2.54;98.26
65157;BME280;52745;49.794;18.258;2023-02-13T05:45:33;-16005.88;;;2.56;98.54
65157;BME280;52745;49.794;18.258;2023-02-13T05:48:00;-16008.34;;;2.65;97.95
65157;BME280;52745;49.794;18.258;2023-02-13T05:50:27;-16009.28;;;2.69;97.94
65157;BME280;52745;49.794;18.258;2023-02-13T05:52:55;-16011.06;;;2.76;97.58
65157;BME280;52745;49.794;18.258;2023-02-13T05:55:21;-16011.63;;;2.78;97.53
65157;BME280;52745;49.794;18.258;2023-02-13T05:57:48;-16011.63;;;2.78;97.49
65157;BME280;52745;49.794;18.258;2023-02-13T06:00:15;-16007.66;;;2.63;97.81
65157;BME280;52745;49.794;18.258;2023-02-13T06:02:42;-16009.28;;;2.69;98.22
65157;BME280;52745;49.794;18.258;2023-02-13T06:05:09;-16007.91;;;2.64;98.21
65157;BME280;52745;49.794;18.258;2023-02-13T06:07:36;-16007.78;;;2.63;98.00
65157;BME280;52745;49.794;18.258;2023-02-13T06:10:03;-16012.97;;;2.83;97.34
65157;BME280;52745;49.794;18.258;2023-02-13T06:12:30;-16012.72;;;2.82;96.97
65157;BME280;52745;49.794;18.258;2023-02-13T06:14:56;-16013.81;;;2.86;96.85
65157;BME280;52745;49.794;18.258;2023-02-13T06:17:23;-16014.09;;;2.87;96.72
65157;BME280;52745;49.794;18.258;2023-02-13T06:19:50;-16012.56;;;2.81;97.02
65157;BME280;52745;49.794;18.258;2023-02-13T06:22:17;-16009.16;;;2.68;97.49
65157;BME280;52745;49.794;18.258;2023-02-13T06:24:43;-16006.41;;;2.58;98.14
65157;BME280;52745;49.794;18.258;2023-02-13T06:27:10;-16004.22;;;2.50;98.46
65157;BME280;52745;49.794;18.258;2023-02-13T06:29:37;-16004.91;;;2.53;98.68
65157;BME280;52745;49.794;18.258;2023-02-13T06:32:04;-16004.50;;;2.51;98.96
65157;BME280;52745;49.794;18.258;2023-02-13T06:34:31;-16003.53;;;2.47;99.05
65157;BME280;52745;49.794;18.258;2023-02-13T06:36:57;-16005.31;;;2.54;100.00
65157;BME280;52745;49.794;18.258;2023-02-13T06:39:24;-16011.06;;;2.76;100.00
65157;BME280;52745;49.794;18.258;2023-02-13T06:41:51;-16011.88;;;2.79;100.00
65157;BME280;52745;49.794;18.258;2023-02-13T06:44:17;-16014.63;;;2.89;100.00
65157;BME280;52745;49.794;18.258;2023-02-13T06:46:44;-16017.63;;;3.00;100.00
65157;BME280;52745;49.794;18.258;2023-02-13T06:49:11;-16019.56;;;3.07;97.89
65157;BME280;52745;49.794;18.258;2023-02-13T06:51:38;-16018.72;;;3.04;97.05
65157;BME280;52745;49.794;18.258;2023-02-13T06:54:04;-16020.09;;;3.09;96.73
65157;BME280;52745;49.794;18.258;2023-02-13T06:56:31;-16016.69;;;2.97;96.87
65157;BME280;52745;49.794;18.258;2023-02-13T06:59:01;-16020.09;;;3.09;96.54
65157;BME280;52745;49.794;18.258;2023-02-13T07:01:28;-16022.16;;;3.17;96.37
65157;BME280;52745;49.794;18.258;2023-02-13T07:03:54;-16020.25;;;3.10;96.59
65157;BME280;52745;49.794;18.258;2023-02-13T07:06:21;-16022.28;;;3.18;95.75
65157;BME280;52745;49.794;18.258;2023-02-13T07:08:48;-16024.47;;;3.26;95.26
65157;BME280;52745;49.794;18.258;2023-02-13T07:11:22;-16025.03;;;3.28;95.28
65157;BME280;52745;49.794;18.258;2023-02-13T07:13:49;-16028.44;;;3.41;94.86
65157;BME280;52745;49.794;18.258;2023-02-13T07:16:17;-16023.66;;;3.23;95.26
65157;BME280;52745;49.794;18.258;2023-02-13T07:18:43;-16023.38;;;3.22;95.93
65157;BME280;52745;49.794;18.258;2023-02-13T07:21:11;-16024.47;;;3.26;95.51
65157;BME280;52745;49.794;18.258;2023-02-13T07:23:38;-16018.72;;;3.04;95.81
65157;BME280;52745;49.794;18.258;2023-02-13T07:26:04;-16023.66;;;3.23;96.15
65157;BME280;52745;49.794;18.258;2023-02-13T07:28:31;-16022.44;;;3.18;95.80
65157;BME280;52745;49.794;18.258;2023-02-13T07:31:03;-16022.28;;;3.18;96.01
65157;BME280;52745;49.794;18.258;2023-02-13T07:33:33;-16025.31;;;3.29;95.81
65157;BME280;52745;49.794;18.258;2023-02-13T07:36:02;-16032.16;;;3.55;94.88
65157;BME280;52745;49.794;18.258;2023-02-13T07:38:30;-16030.78;;;3.49;93.96
65157;BME280;52745;49.794;18.258;2023-02-13T07:41:01;-16032.16;;;3.55;93.73
65157;BME280;52745;49.794;18.258;2023-02-13T07:43:28;-16027.09;;;3.36;94.02
65157;BME280;52745;49.794;18.258;2023-02-13T07:45:59;-16025.03;;;3.28;94.71
65157;BME280;52745;49.794;18.258;2023-02-13T07:48:28;-16029.53;;;3.45;94.95
65157;BME280;52745;49.794;18.258;2023-02-13T07:50:59;-16031.59;;;3.52;94.83
65157;BME280;52745;49.794;18.258;2023-02-13T07:53:27;-16032.16;;;3.55;93.89
65157;BME280;52745;49.794;18.258;2023-02-13T07:55:54;-16033.78;;;3.61;93.67
65157;BME280;52745;49.794;18.258;2023-02-13T07:58:21;-16035.16;;;3.66;93.65
65157;BME280;52745;49.794;18.258;2023-02-13T08:00:48;-16033.50;;;3.60;93.64
65157;BME280;52745;49.794;18.258;2023-02-13T08:03:15;-16031.19;;;3.51;94.13
65157;BME280;52745;49.794;18.258;2023-02-13T08:05:41;-16034.19;;;3.62;93.60
65157;BME280;52745;49.794;18.258;2023-02-13T08:08:08;-16034.75;;;3.64;93.29
65157;BME280;52745;49.794;18.258;2023-02-13T08:10:35;-16030.63;;;3.49;93.99
65157;BME280;52745;49.794;18.258;2023-02-13T08:13:20;-16035.84;;;3.68;93.89
65157;BME280;52745;49.794;18.258;2023-02-13T08:15:47;-16043.78;;;3.98;92.46
65157;BME280;52745;49.794;18.258;2023-02-13T08:18:14;-16051.56;;;4.27;91.42
65157;BME280;52745;49.794;18.258;2023-02-13T08:20:41;-16062.09;;;4.67;89.69
65157;BME280;52745;49.794;18.258;2023-02-13T08:23:09;-16063.06;;;4.70;88.55
65157;BME280;52745;49.794;18.258;2023-02-13T08:25:37;-16058.97;;;4.55;88.78
65157;BME280;52745;49.794;18.258;2023-02-13T08:28:04;-16060.75;;;4.62;88.79
65157;BME280;52745;49.794;18.258;2023-02-13T08:30:31;-16063.47;;;4.72;88.77
65157;BME280;52745;49.794;18.258;2023-02-13T08:32:58;-16069.63;;;4.95;87.62
65157;BME280;52745;49.794;18.258;2023-02-13T08:35:25;-16078.09;;;5.27;85.83
65157;BME280;52745;49.794;18.258;2023-02-13T08:37:55;-16092.19;;;5.79;84.16
65157;BME280;52745;49.794;18.258;2023-02-13T08:40:22;-16110.91;;;6.50;81.67
65157;BME280;52745;49.794;18.258;2023-02-13T08:42:49;-16114.88;;;6.65;79.59
65157;BME280;52745;49.794;18.258;2023-02-13T08:45:15;-16113.38;;;6.59;79.49
65157;BME280;52745;49.794;18.258;2023-02-13T08:47:42;-16106.81;;;6.34;79.98
65157;BME280;52745;49.794;18.258;2023-02-13T08:50:09;-16102.03;;;6.16;81.12
65157;BME280;52745;49.794;18.258;2023-02-13T08:52:36;-16102.44;;;6.18;81.53
65157;BME280;52745;49.794;18.258;2023-02-13T08:55:03;-16098.19;;;6.02;81.79
65157;BME280;52745;49.794;18.258;2023-02-13T08:57:30;-16109.81;;;6.46;80.34
65157;BME280;52745;49.794;18.258;2023-02-13T08:59:57;-16110.78;;;6.49;78.97
65157;BME280;52745;49.794;18.258;2023-02-13T09:02:24;-16111.47;;;6.52;79.68
65157;BME280;52745;49.794;18.258;2023-02-13T09:04:51;-16114.75;;;6.64;79.34
65157;BME280;52745;49.794;18.258;2023-02-13T09:07:18;-16143.69;;;7.73;76.88
65157;BME280;52745;49.794;18.258;2023-02-13T09:09:44;-16160.91;;;8.37;73.50
65157;BME280;52745;49.794;18.258;2023-02-13T09:12:11;-16128.13;;;7.14;77.22
65157;BME280;52745;49.794;18.258;2023-02-13T09:14:39;-16103.81;;;6.23;81.25
65157;BME280;52745;49.794;18.258;2023-02-13T09:17:06;-16085.50;;;5.54;84.33
65157;BME280;52745;49.794;18.258;2023-02-13T09:19:32;-16081.66;;;5.40;85.65
65157;BME280;52745;49.794;18.258;2023-02-13T09:21:59;-16079.19;;;5.31;86.16
65157;BME280;52745;49.794;18.258;2023-02-13T09:24:26;-16077.84;;;5.26;86.89
65157;BME280;52745;49.794;18.258;2023-02-13T09:26:53;-16077.28;;;5.24;87.06
65157;BME280;52745;49.794;18.258;2023-02-13T09:29:21;-16077.00;;;5.23;87.21
65157;BME280;52745;49.794;18.258;2023-02-13T09:31:48;-16086.03;;;5.56;85.87
65157;BME280;52745;49.794;18.258;2023-02-13T09:34:15;-16093.16;;;5.83;84.93
65157;BME280;52745;49.794;18.258;2023-02-13T09:36:42;-16090.97;;;5.75;85.24
65157;BME280;52745;49.794;18.258;2023-02-13T09:39:08;-16097.94;;;6.01;83.89
65157;BME280;52745;49.794;18.258;2023-02-13T09:41:38;-16095.47;;;5.92;83.08
65157;BME280;52745;49.794;18.258;2023-02-13T09:47:16;-16100.13;;;6.09;84.73
65157;BME280;52745;49.794;18.258;2023-02-13T09:49:50;-16092.06;;;5.79;85.86
65157;BME280;52745;49.794;18.258;2023-02-13T09:52:18;-16094.25;;;5.87;86.50
65157;BME280;52745;49.794;18.258;2023-02-13T09:54:45;-16101.91;;;6.16;85.18
65157;BME280;52745;49.794;18.258;2023-02-13T09:57:33;-16107.38;;;6.36;84.88
65157;BME280;52745;49.794;18.258;2023-02-13T10:05:45;-16100.25;;;6.10;84.49
65157;BME280;52745;49.794;18.258;2023-02-13T10:16:08;-16095.88;;;5.93;87.66
65157;BME280;52745;49.794;18.258;2023-02-13T10:18:47;-16096.28;;;5.95;88.54
65157;BME280;52745;49.794;18.258;2023-02-13T10:21:18;-16105.31;;;6.29;87.82
65157;BME280;52745;49.794;18.258;2023-02-13T10:23:53;-16112.56;;;6.56;87.67
65157;BME280;52745;49.794;18.258;2023-02-13T10:26:22;-16111.06;;;6.50;88.25
65157;BME280;52745;49.794;18.258;2023-02-13T10:29:33;-16103.81;;;6.23;88.34
65157;BME280;52745;49.794;18.258;2023-02-13T10:32:16;-16100.38;;;6.10;88.49
65157;BME280;52745;49.794;18.258;2023-02-13T10:34:45;-16093.16;;;5.83;88.94
65157;BME280;52745;49.794;18.258;2023-02-13T10:37:18;-16087.81;;;5.63;90.84
65157;BME280;52745;49.794;18.258;2023-02-13T10:39:49;-16086.84;;;5.59;91.71
65157;BME280;52745;49.794;18.258;2023-02-13T10:42:41;-16089.19;;;5.68;91.82
65157;BME280;52745;49.794;18.258;2023-02-13T10:50:55;-16097.25;;;5.98;91.80
65157;BME280;52745;49.794;18.258;2023-02-13T10:59:05;-16104.09;;;6.24;90.91
65157;BME280;52745;49.794;18.258;2023-02-13T11:01:52;-16100.53;;;6.11;90.25
65157;BME280;52745;49.794;18.258;2023-02-13T11:04:21;-16088.09;;;5.64;91.56
65157;BME280;52745;49.794;18.258;2023-02-13T11:06:59;-16091.38;;;5.76;92.08
65157;BME280;52745;49.794;18.258;2023-02-13T11:09:27;-16094.78;;;5.89;91.40
65157;BME280;52745;49.794;18.258;2023-02-13T11:11:54;-16091.50;;;5.77;91.06
65157;BME280;52745;49.794;18.258;2023-02-13T11:14:24;-16089.72;;;5.70;92.94
65157;BME280;52745;49.794;18.258;2023-02-13T11:16:53;-16089.72;;;5.70;92.05
65157;BME280;52745;49.794;18.258;2023-02-13T11:22:03;-16093.97;;;5.86;93.12
65157;BME280;52745;49.794;18.258;2023-02-13T11:24:31;-16102.16;;;6.17;92.04
65157;BME280;52745;49.794;18.258;2023-02-13T11:27:04;-16103.00;;;6.20;90.46
65157;BME280;52745;49.794;18.258;2023-02-13T11:29:36;-16104.78;;;6.27;89.53
65157;BME280;52745;49.794;18.258;2023-02-13T11:32:28;-16096.44;;;5.95;91.17
65157;BME280;52745;49.794;18.258;2023-02-13T11:34:56;-16098.34;;;6.03;91.28
65157;BME280;52745;49.794;18.258;2023-02-13T11:37:26;-16098.06;;;6.01;91.72
65157;BME280;52745;49.794;18.258;2023-02-13T11:39:56;-16093.97;;;5.86;92.08
65157;BME280;52745;49.794;18.258;2023-02-13T11:44:58;-16088.63;;;5.66;93.32
65157;BME280;52745;49.794;18.258;2023-02-13T11:50:03;-16093.41;;;5.84;92.89
65157;BME280;52745;49.794;18.258;2023-02-13T11:52:32;-16091.22;;;5.76;92.92
65157;BME280;52745;49.794;18.258;2023-02-13T11:55:03;-16093.56;;;5.85;92.75
65157;BME280;52745;49.794;18.258;2023-02-13T11:57:35;-16099.56;;;6.07;91.76
65157;BME280;52745;49.794;18.258;2023-02-13T12:00:34;-16096.84;;;5.97;91.93
65157;BME280;52745;49.794;18.258;2023-02-13T12:08:36;-16096.84;;;5.97;92.09
65157;BME280;52745;49.794;18.258;2023-02-13T12:13:44;-16092.88;;;5.82;93.18
65157;BME280;52745;49.794;18.258;2023-02-13T12:18:55;-16100.53;;;6.11;92.27
65157;BME280;52745;49.794;18.258;2023-02-13T12:38:21;-16134.69;;;7.39;85.74
65157;BME280;52745;49.794;18.258;2023-02-13T12:43:53;-16136.19;;;7.44;84.48
65157;BME280;52745;49.794;18.258;2023-02-13T12:49:07;-16136.88;;;7.47;82.72
65157;BME280;52745;49.794;18.258;2023-02-13T12:57:23;-16143.97;;;7.74;80.68
65157;BME280;52745;49.794;18.258;2023-02-13T13:02:54;-16136.59;;;7.46;81.70
65157;BME280;52745;49.794;18.258;2023-02-13T13:08:48;-16124.31;;;7.00;82.42
65157;BME280;52745;49.794;18.258;2023-02-13T13:14:26;-16126.63;;;7.09;83.48
65157;BME280;52745;49.794;18.258;2023-02-13T13:17:19;-16122.81;;;6.94;83.46
65157;BME280;52745;49.794;18.258;2023-02-13T13:20:06;-16118.97;;;6.80;84.21
65157;BME280;52745;49.794;18.258;2023-02-13T13:22:53;-16114.88;;;6.65;85.24
65157;BME280;52745;49.794;18.258;2023-02-13T13:25:39;-16112.16;;;6.54;85.63
65157;BME280;52745;49.794;18.258;2023-02-13T13:28:14;-16112.00;;;6.54;87.51
65157;BME280;52745;49.794;18.258;2023-02-13T13:30:42;-16113.66;;;6.60;87.75
65157;BME280;52745;49.794;18.258;2023-02-13T13:33:15;-16114.47;;;6.63;88.12
65157;BME280;52745;49.794;18.258;2023-02-13T13:35:52;-16108.72;;;6.41;89.62
65157;BME280;52745;49.794;18.258;2023-02-13T13:51:50;-16104.63;;;6.26;91.35
65157;BME280;52745;49.794;18.258;2023-02-13T13:54:22;-16105.72;;;6.30;90.97
65157;BME280;52745;49.794;18.258;2023-02-13T14:05:27;-16109.69;;;6.45;89.59
65157;BME280;52745;49.794;18.258;2023-02-13T14:07:57;-16106.00;;;6.31;90.60
65157;BME280;52745;49.794;18.258;2023-02-13T14:18:05;-16100.81;;;6.12;91.93
65157;BME280;52745;49.794;18.258;2023-02-13T14:23:33;-16095.19;;;5.91;94.53
65157;BME280;52745;49.794;18.258;2023-02-13T14:31:31;-16093.28;;;5.84;96.09
65157;BME280;52745;49.794;18.258;2023-02-13T14:36:42;-16086.03;;;5.56;97.02
65157;BME280;52745;49.794;18.258;2023-02-13T14:39:25;-16080.03;;;5.34;97.99
65157;BME280;52745;49.794;18.258;2023-02-13T14:44:36;-16082.63;;;5.44;98.50
65157;BME280;52745;49.794;18.258;2023-02-13T14:47:19;-16081.66;;;5.40;99.02
65157;BME280;52745;49.794;18.258;2023-02-13T14:49:49;-16078.78;;;5.29;99.92
65157;BME280;52745;49.794;18.258;2023-02-13T14:52:23;-16080.03;;;5.34;100.00
65157;BME280;52745;49.794;18.258;2023-02-13T14:54:58;-16085.06;;;5.53;99.31
65157;BME280;52745;49.794;18.258;2023-02-13T14:57:30;-16087.25;;;5.61;98.52
65157;BME280;52745;49.794;18.258;2023-02-13T15:00:08;-16085.91;;;5.56;99.34
65157;BME280;52745;49.794;18.258;2023-02-13T15:02:44;-16080.16;;;5.34;100.00
65157;BME280;52745;49.794;18.258;2023-02-13T15:05:17;-16077.56;;;5.25;100.00
65157;BME280;52745;49.794;18.258;2023-02-13T15:08:01;-16073.88;;;5.11;100.00
65157;BME280;52745;49.794;18.258;2023-02-13T15:10:46;-16072.09;;;5.04;100.00
65157;BME280;52745;49.794;18.258;2023-02-13T15:13:45;-16072.09;;;5.04;100.00
65157;BME280;52745;49.794;18.258;2023-02-13T15:16:13;-16070.19;;;4.97;100.00
65157;BME280;52745;49.794;18.258;2023-02-13T15:18:40;-16068.25;;;4.90;100.00
65157;BME280;52745;49.794;18.258;2023-02-13T15:21:17;-16069.09;;;4.93;100.00
65157;BME280;52745;49.794;18.258;2023-02-13T15:23:52;-16068.53;;;4.91;100.00
65157;BME280;52745;49.794;18.258;2023-02-13T15:26:23;-16065.53;;;4.80;100.00
65157;BME280;52745;49.794;18.258;2023-02-13T15:29:02;-16066.63;;;4.84;100.00
65157;BME280;52745;49.794;18.258;2023-02-13T15:31:31;-16067.56;;;4.87;100.00
65157;BME280;52745;49.794;18.258;2023-02-13T15:33:58;-16065.13;;;4.78;100.00
65157;BME280;52745;49.794;18.258;2023-02-13T15:36:38;-16068.41;;;4.90;100.00
65157;BME280;52745;49.794;18.258;2023-02-13T15:39:05;-16068.81;;;4.92;100.00
65157;BME280;52745;49.794;18.258;2023-02-13T15:41:41;-16065.81;;;4.81;100.00
65157;BME280;52745;49.794;18.258;2023-02-13T15:44:16;-16068.53;;;4.91;100.00
65157;BME280;52745;49.794;18.258;2023-02-13T15:46:48;-16067.84;;;4.88;100.00
65157;BME280;52745;49.794;18.258;2023-02-13T15:49:21;-16064.97;;;4.77;100.00
65157;BME280;52745;49.794;18.258;2023-02-13T15:51:50;-16065.81;;;4.81;100.00
65157;BME280;52745;49.794;18.258;2023-02-13T15:54:28;-16066.06;;;4.82;100.00
65157;BME280;52745;49.794;18.258;2023-02-13T15:56:58;-16063.06;;;4.70;100.00
65157;BME280;52745;49.794;18.258;2023-02-13T15:59:30;-16060.06;;;4.59;100.00
65157;BME280;52745;49.794;18.258;2023-02-13T16:01:59;-16058.97;;;4.55;100.00
65157;BME280;52745;49.794;18.258;2023-02-13T16:04:27;-16059.78;;;4.58;100.00